SBOSBO UIP / LFRQ
Speedbird OnlineSpeedbird Online UIP / LFRQ

Quimper-Cornouaille Airport
10:56 21°C

Location Quimper, France
Latitude: 47.974998474121094
Longitude: -4.167789936065674
Local Time 10:56 on 18 Jul 2024
UTC +2 hours (Europe/Paris)
Currency £1 equals EUR 1.19
METAR LFRQ 180830Z AUTO 12003KT 070V190 CAVOK 21/16 Q1019 NOSIG
TAF TAF LFRQ 180500Z 1806/1906 VRB05KT CAVOK TEMPO 1902/1906 3000 BR PROB40 TEMPO 1903/1906 0500 FG VV///
Weather As Of 18 Jul 2024 10:56
Description Clear sky
Wind 6 km/h from South-East (120°)
Cloud Cover 0%
Precipitation Rain: none, Snow: none
Sunrise 06:36
Sunset 22:09
NOTAM 6 active NOTAM
Web Wikipedia
Codes IATA: UIP
ICAO: LFRQ
Altitude 91 Meter / 297 Feet
Distance 499 KM / 310 Miles
from London.
Runways
RunwayLength (m)Surface
04810Asphalt
092150Asphalt
22810Asphalt
272150Asphalt
Radio
TypeDescriptionFrequency
APPIROISE APP119.575
TWRQUIMPER TWR118.625
Live ATC



Support Speedbird Online

© 2017-2024 Speedbird Online